sensor_id;sensor_type;location;lat;lon;timestamp;pressure;altitude;pressure_sealevel;temperature;humidity
55538;BME280;41383;51.418;7.286;2023-04-07T00:00:52;99640.06;;;8.81;87.55
55538;BME280;41383;51.418;7.286;2023-04-07T00:03:17;99647.50;;;8.91;86.83
55538;BME280;41383;51.418;7.286;2023-04-07T00:05:42;99642.50;;;8.78;87.01
55538;BME280;41383;51.418;7.286;2023-04-07T00:08:08;99639.47;;;8.51;87.65
55538;BME280;41383;51.418;7.286;2023-04-07T00:10:33;99637.66;;;8.57;88.25
55538;BME280;41383;51.418;7.286;2023-04-07T00:12:58;99635.81;;;8.63;88.09
55538;BME280;41383;51.418;7.286;2023-04-07T00:15:24;99631.75;;;8.66;88.56
55538;BME280;41383;51.418;7.286;2023-04-07T00:17:50;99635.06;;;8.68;87.83
55538;BME280;41383;51.418;7.286;2023-04-07T00:20:16;99634.03;;;8.74;87.89
55538;BME280;41383;51.418;7.286;2023-04-07T00:22:41;99632.44;;;8.78;87.29
55538;BME280;41383;51.418;7.286;2023-04-07T00:25:07;99634.25;;;8.95;86.56
55538;BME280;41383;51.418;7.286;2023-04-07T00:27:32;99630.47;;;9.01;85.84
55538;BME280;41383;51.418;7.286;2023-04-07T00:29:57;99630.47;;;8.73;86.51
55538;BME280;41383;51.418;7.286;2023-04-07T00:32:23;99635.44;;;8.77;87.22
55538;BME280;41383;51.418;7.286;2023-04-07T00:34:48;99627.88;;;8.84;86.91
55538;BME280;41383;51.418;7.286;2023-04-07T00:37:13;99632.56;;;8.89;87.20
55538;BME280;41383;51.418;7.286;2023-04-07T00:39:38;99630.41;;;8.91;86.84
55538;BME280;41383;51.418;7.286;2023-04-07T00:42:04;99623.66;;;8.98;86.34
55538;BME280;41383;51.418;7.286;2023-04-07T00:44:32;99629.91;;;8.99;86.02
55538;BME280;41383;51.418;7.286;2023-04-07T00:46:57;99631.28;;;9.02;86.05
55538;BME280;41383;51.418;7.286;2023-04-07T00:49:23;99625.25;;;8.94;86.82
55538;BME280;41383;51.418;7.286;2023-04-07T00:51:48;99622.28;;;8.96;86.63
55538;BME280;41383;51.418;7.286;2023-04-07T00:54:14;99627.91;;;8.89;86.92
55538;BME280;41383;51.418;7.286;2023-04-07T00:56:39;99620.88;;;8.93;86.91
55538;BME280;41383;51.418;7.286;2023-04-07T00:59:04;99619.75;;;8.89;87.13
55538;BME280;41383;51.418;7.286;2023-04-07T01:01:35;99619.53;;;8.91;87.22
55538;BME280;41383;51.418;7.286;2023-04-07T01:04:11;99617.13;;;8.99;86.56
55538;BME280;41383;51.418;7.286;2023-04-07T01:06:37;99613.56;;;8.94;86.44
55538;BME280;41383;51.418;7.286;2023-04-07T01:09:12;99610.88;;;8.99;86.43
55538;BME280;41383;51.418;7.286;2023-04-07T01:14:14;99597.16;;;9.16;85.96
55538;BME280;41383;51.418;7.286;2023-04-07T01:16:45;99607.34;;;9.31;84.86
55538;BME280;41383;51.418;7.286;2023-04-07T01:20:04;99615.09;;;9.17;85.03
55538;BME280;41383;51.418;7.286;2023-04-07T01:22:26;99605.91;;;9.23;85.43
55538;BME280;41383;51.418;7.286;2023-04-07T01:25:05;99602.72;;;9.32;84.98
55538;BME280;41383;51.418;7.286;2023-04-07T01:27:57;99607.00;;;9.22;85.27
55538;BME280;41383;51.418;7.286;2023-04-07T01:30:30;99598.84;;;9.22;85.30
55538;BME280;41383;51.418;7.286;2023-04-07T01:32:58;99607.19;;;9.10;86.01
55538;BME280;41383;51.418;7.286;2023-04-07T01:35:25;99603.84;;;9.03;86.60
55538;BME280;41383;51.418;7.286;2023-04-07T01:37:52;99607.53;;;8.86;87.37
55538;BME280;41383;51.418;7.286;2023-04-07T01:40:20;99609.72;;;8.90;87.34
55538;BME280;41383;51.418;7.286;2023-04-07T01:42:46;99603.28;;;9.01;86.74
55538;BME280;41383;51.418;7.286;2023-04-07T01:45:15;99600.63;;;9.06;86.27
55538;BME280;41383;51.418;7.286;2023-04-07T01:47:40;99598.28;;;9.20;85.77
55538;BME280;41383;51.418;7.286;2023-04-07T01:50:06;99609.19;;;9.26;85.11
55538;BME280;41383;51.418;7.286;2023-04-07T01:52:34;99597.72;;;9.18;85.78
55538;BME280;41383;51.418;7.286;2023-04-07T01:55:00;99596.47;;;9.31;85.18
55538;BME280;41383;51.418;7.286;2023-04-07T01:57:25;99602.22;;;9.35;84.83
55538;BME280;41383;51.418;7.286;2023-04-07T01:59:52;99596.84;;;9.45;84.11
55538;BME280;41383;51.418;7.286;2023-04-07T02:02:17;99597.34;;;9.42;84.57
55538;BME280;41383;51.418;7.286;2023-04-07T02:04:54;99596.16;;;9.28;85.21
55538;BME280;41383;51.418;7.286;2023-04-07T02:07:28;99596.16;;;9.28;85.23
55538;BME280;41383;51.418;7.286;2023-04-07T02:09:57;99598.84;;;9.22;85.68
55538;BME280;41383;51.418;7.286;2023-04-07T02:12:25;99598.38;;;9.31;85.22
55538;BME280;41383;51.418;7.286;2023-04-07T02:14:52;99593.41;;;9.22;85.52
55538;BME280;41383;51.418;7.286;2023-04-07T02:17:18;99594.00;;;9.30;85.34
55538;BME280;41383;51.418;7.286;2023-04-07T02:19:43;99591.09;;;9.42;84.39
55538;BME280;41383;51.418;7.286;2023-04-07T02:22:11;99596.84;;;9.45;84.39
55538;BME280;41383;51.418;7.286;2023-04-07T02:24:40;99601.72;;;9.43;84.35
55538;BME280;41383;51.418;7.286;2023-04-07T02:27:06;99597.72;;;9.18;85.54
55538;BME280;41383;51.418;7.286;2023-04-07T02:29:32;99595.66;;;8.98;86.71
55538;BME280;41383;51.418;7.286;2023-04-07T02:31:57;99592.72;;;9.05;86.99
55538;BME280;41383;51.418;7.286;2023-04-07T02:34:22;99595.53;;;9.15;86.29
55538;BME280;41383;51.418;7.286;2023-04-07T02:36:47;99588.97;;;9.11;86.54
55538;BME280;41383;51.418;7.286;2023-04-07T02:39:13;99597.06;;;9.06;87.02
55538;BME280;41383;51.418;7.286;2023-04-07T02:41:38;99591.59;;;9.01;87.27
55538;BME280;41383;51.418;7.286;2023-04-07T02:44:03;99599.59;;;9.13;86.80
55538;BME280;41383;51.418;7.286;2023-04-07T02:46:28;99596.06;;;9.17;86.58
55538;BME280;41383;51.418;7.286;2023-04-07T02:48:54;99598.28;;;9.20;86.55
55538;BME280;41383;51.418;7.286;2023-04-07T02:51:19;99598.59;;;9.24;86.13
55538;BME280;41383;51.418;7.286;2023-04-07T02:53:45;99590.41;;;9.19;86.73
55538;BME280;41383;51.418;7.286;2023-04-07T02:56:10;99592.88;;;9.26;86.32
55538;BME280;41383;51.418;7.286;2023-04-07T02:58:35;99592.38;;;9.29;86.07
55538;BME280;41383;51.418;7.286;2023-04-07T03:01:00;99599.75;;;9.33;85.87
55538;BME280;41383;51.418;7.286;2023-04-07T03:03:26;99596.53;;;9.42;85.61
55538;BME280;41383;51.418;7.286;2023-04-07T03:05:51;99593.00;;;9.41;85.37
55538;BME280;41383;51.418;7.286;2023-04-07T03:08:16;99594.94;;;9.46;85.45
55538;BME280;41383;51.418;7.286;2023-04-07T03:10:41;99592.25;;;9.51;85.30
55538;BME280;41383;51.418;7.286;2023-04-07T03:13:08;99589.81;;;9.55;84.71
55538;BME280;41383;51.418;7.286;2023-04-07T03:15:33;99590.88;;;9.49;84.94
55538;BME280;41383;51.418;7.286;2023-04-07T03:17:58;99598.25;;;9.53;84.63
55538;BME280;41383;51.418;7.286;2023-04-07T03:20:24;99591.97;;;9.53;84.94
55538;BME280;41383;51.418;7.286;2023-04-07T03:22:49;99598.00;;;9.55;85.24
55538;BME280;41383;51.418;7.286;2023-04-07T03:25:14;99592.75;;;9.43;85.78
55538;BME280;41383;51.418;7.286;2023-04-07T03:27:39;99598.25;;;9.53;85.32
55538;BME280;41383;51.418;7.286;2023-04-07T03:30:05;99590.66;;;9.55;85.18
55538;BME280;41383;51.418;7.286;2023-04-07T03:32:31;99594.38;;;9.44;86.05
55538;BME280;41383;51.418;7.286;2023-04-07T03:34:56;99595.72;;;9.41;86.18
55538;BME280;41383;51.418;7.286;2023-04-07T03:37:21;99597.16;;;9.54;85.44
55538;BME280;41383;51.418;7.286;2023-04-07T03:39:46;99596.31;;;9.49;85.98
55538;BME280;41383;51.418;7.286;2023-04-07T03:42:12;99592.53;;;9.50;86.10
55538;BME280;41383;51.418;7.286;2023-04-07T03:44:37;99588.91;;;9.39;86.87
55538;BME280;41383;51.418;7.286;2023-04-07T03:47:02;99590.72;;;9.28;87.39
55538;BME280;41383;51.418;7.286;2023-04-07T03:49:28;99597.25;;;9.27;88.18
55538;BME280;41383;51.418;7.286;2023-04-07T03:51:54;99600.47;;;9.23;88.04
55538;BME280;41383;51.418;7.286;2023-04-07T03:54:19;99601.09;;;9.31;87.68
55538;BME280;41383;51.418;7.286;2023-04-07T03:56:45;99604.94;;;9.35;87.40
55538;BME280;41383;51.418;7.286;2023-04-07T03:59:10;99599.34;;;9.19;88.57
55538;BME280;41383;51.418;7.286;2023-04-07T04:01:35;99604.84;;;9.25;88.63
55538;BME280;41383;51.418;7.286;2023-04-07T04:04:01;99599.88;;;9.16;89.11
55538;BME280;41383;51.418;7.286;2023-04-07T04:06:26;99601.91;;;9.31;88.61
55538;BME280;41383;51.418;7.286;2023-04-07T04:08:52;99607.03;;;9.28;88.91
55538;BME280;41383;51.418;7.286;2023-04-07T04:11:17;99600.47;;;9.23;89.34
55538;BME280;41383;51.418;7.286;2023-04-07T04:13:42;99605.41;;;9.27;89.26
55538;BME280;41383;51.418;7.286;2023-04-07T04:16:08;99605.69;;;9.30;89.06
55538;BME280;41383;51.418;7.286;2023-04-07T04:18:33;99611.97;;;9.31;89.08
55538;BME280;41383;51.418;7.286;2023-04-07T04:20:58;99605.44;;;9.32;88.85
55538;BME280;41383;51.418;7.286;2023-04-07T04:23:23;99613.72;;;9.48;87.97
55538;BME280;41383;51.418;7.286;2023-04-07T04:25:49;99611.31;;;9.51;87.92
55538;BME280;41383;51.418;7.286;2023-04-07T04:28:14;99611.59;;;9.55;87.58
55538;BME280;41383;51.418;7.286;2023-04-07T04:30:39;99612.72;;;9.59;87.60
55538;BME280;41383;51.418;7.286;2023-04-07T04:33:05;99619.78;;;9.60;87.41
55538;BME280;41383;51.418;7.286;2023-04-07T04:35:31;99611.88;;;9.58;87.37
55538;BME280;41383;51.418;7.286;2023-04-07T04:37:56;99619.78;;;9.60;87.78
55538;BME280;41383;51.418;7.286;2023-04-07T04:40:21;99625.22;;;9.55;87.46
55538;BME280;41383;51.418;7.286;2023-04-07T04:42:47;99624.66;;;9.58;87.36
55538;BME280;41383;51.418;7.286;2023-04-07T04:45:12;99629.03;;;9.59;87.36
55538;BME280;41383;51.418;7.286;2023-04-07T04:47:37;99628.50;;;9.62;87.33
55538;BME280;41383;51.418;7.286;2023-04-07T04:50:04;99623.06;;;9.62;87.14
55538;BME280;41383;51.418;7.286;2023-04-07T04:52:30;99635.59;;;9.63;86.82
55538;BME280;41383;51.418;7.286;2023-04-07T04:54:55;99625.22;;;9.60;87.67
55538;BME280;41383;51.418;7.286;2023-04-07T04:57:20;99633.91;;;9.52;87.81
55538;BME280;41383;51.418;7.286;2023-04-07T04:59:46;99635.72;;;9.41;88.15
55538;BME280;41383;51.418;7.286;2023-04-07T05:02:11;99638.94;;;9.38;89.08
55538;BME280;41383;51.418;7.286;2023-04-07T05:04:36;99632.25;;;9.51;88.48
55538;BME280;41383;51.418;7.286;2023-04-07T05:07:01;99639.38;;;9.57;88.32
55538;BME280;41383;51.418;7.286;2023-04-07T05:09:27;99640.97;;;9.53;88.01
55538;BME280;41383;51.418;7.286;2023-04-07T05:11:52;99637.47;;;9.57;87.72
55538;BME280;41383;51.418;7.286;2023-04-07T05:14:17;99645.78;;;9.40;88.73
55538;BME280;41383;51.418;7.286;2023-04-07T05:16:43;99645.28;;;9.49;88.28
55538;BME280;41383;51.418;7.286;2023-04-07T05:19:08;99646.59;;;9.41;88.92
55538;BME280;41383;51.418;7.286;2023-04-07T05:21:33;99652.00;;;9.36;88.92
55538;BME280;41383;51.418;7.286;2023-04-07T05:23:58;99659.16;;;9.47;89.12
55538;BME280;41383;51.418;7.286;2023-04-07T05:26:24;99655.16;;;9.55;88.22
55538;BME280;41383;51.418;7.286;2023-04-07T05:28:50;99652.44;;;9.60;87.33
55538;BME280;41383;51.418;7.286;2023-04-07T05:31:15;99655.50;;;9.64;87.61
55538;BME280;41383;51.418;7.286;2023-04-07T05:33:40;99650.28;;;9.62;87.40
55538;BME280;41383;51.418;7.286;2023-04-07T05:36:06;99664.34;;;9.49;88.01
55538;BME280;41383;51.418;7.286;2023-04-07T05:38:31;99672.00;;;9.52;88.02
55538;BME280;41383;51.418;7.286;2023-04-07T05:40:57;99667.16;;;9.59;87.66
55538;BME280;41383;51.418;7.286;2023-04-07T05:43:22;99672.25;;;9.50;87.97
55538;BME280;41383;51.418;7.286;2023-04-07T05:45:47;99677.88;;;9.38;88.54
55538;BME280;41383;51.418;7.286;2023-04-07T05:48:13;99675.53;;;9.52;88.15
55538;BME280;41383;51.418;7.286;2023-04-07T05:50:38;99681.50;;;9.49;87.81
55538;BME280;41383;51.418;7.286;2023-04-07T05:53:03;99673.09;;;9.56;87.73
55538;BME280;41383;51.418;7.286;2023-04-07T05:55:28;99682.34;;;9.55;88.01
55538;BME280;41383;51.418;7.286;2023-04-07T05:57:54;99670.34;;;9.51;88.24
55538;BME280;41383;51.418;7.286;2023-04-07T06:00:19;99677.47;;;9.57;87.38
55538;BME280;41383;51.418;7.286;2023-04-07T06:02:44;99677.50;;;9.62;87.50
55538;BME280;41383;51.418;7.286;2023-04-07T06:05:10;99686.19;;;9.54;87.62
55538;BME280;41383;51.418;7.286;2023-04-07T06:07:35;99690.56;;;9.60;87.30
55538;BME280;41383;51.418;7.286;2023-04-07T06:10:01;99693.03;;;9.62;87.72
55538;BME280;41383;51.418;7.286;2023-04-07T06:12:26;99701.22;;;9.67;87.40
55538;BME280;41383;51.418;7.286;2023-04-07T06:14:52;99696.31;;;9.64;87.11
55538;BME280;41383;51.418;7.286;2023-04-07T06:17:18;99704.50;;;9.69;87.22
55538;BME280;41383;51.418;7.286;2023-04-07T06:19:44;99693.81;;;9.57;87.71
55538;BME280;41383;51.418;7.286;2023-04-07T06:22:09;99697.75;;;9.72;86.84
55538;BME280;41383;51.418;7.286;2023-04-07T06:24:34;99703.25;;;9.82;86.82
55538;BME280;41383;51.418;7.286;2023-04-07T06:27:00;99692.88;;;9.79;86.57
55538;BME280;41383;51.418;7.286;2023-04-07T06:29:26;99704.25;;;9.71;86.92
55538;BME280;41383;51.418;7.286;2023-04-07T06:31:51;99706.50;;;9.79;86.95
55538;BME280;41383;51.418;7.286;2023-04-07T06:34:16;99707.13;;;9.91;86.38
55538;BME280;41383;51.418;7.286;2023-04-07T06:36:42;99713.84;;;9.78;86.97
55538;BME280;41383;51.418;7.286;2023-04-07T06:39:07;99716.78;;;9.72;87.16
55538;BME280;41383;51.418;7.286;2023-04-07T06:41:33;99710.22;;;9.67;87.54
55538;BME280;41383;51.418;7.286;2023-04-07T06:43:58;99715.19;;;9.76;86.69
55538;BME280;41383;51.418;7.286;2023-04-07T06:46:23;99717.44;;;9.84;86.22
55538;BME280;41383;51.418;7.286;2023-04-07T06:48:50;99726.66;;;9.83;86.28
55538;BME280;41383;51.418;7.286;2023-04-07T06:51:15;99719.53;;;9.77;86.33
55538;BME280;41383;51.418;7.286;2023-04-07T06:53:41;99725.47;;;9.68;87.23
55538;BME280;41383;51.418;7.286;2023-04-07T06:56:09;99719.81;;;9.75;87.02
55538;BME280;41383;51.418;7.286;2023-04-07T06:58:36;99726.94;;;9.81;86.69
55538;BME280;41383;51.418;7.286;2023-04-07T07:01:01;99725.59;;;9.84;86.79
55538;BME280;41383;51.418;7.286;2023-04-07T07:03:28;99730.81;;;9.91;86.12
55538;BME280;41383;51.418;7.286;2023-04-07T07:05:57;99737.09;;;9.97;86.05
55538;BME280;41383;51.418;7.286;2023-04-07T07:08:22;99737.66;;;9.99;85.88
55538;BME280;41383;51.418;7.286;2023-04-07T07:10:48;99737.09;;;9.97;85.94
55538;BME280;41383;51.418;7.286;2023-04-07T07:13:13;99742.44;;;9.81;86.47
55538;BME280;41383;51.418;7.286;2023-04-07T07:15:38;99746.81;;;9.82;86.62
55538;BME280;41383;51.418;7.286;2023-04-07T07:18:04;99747.41;;;9.89;86.83
55538;BME280;41383;51.418;7.286;2023-04-07T07:20:29;99749.38;;;9.94;86.34
55538;BME280;41383;51.418;7.286;2023-04-07T07:22:54;99748.53;;;9.93;86.05
55538;BME280;41383;51.418;7.286;2023-04-07T07:25:20;99746.38;;;9.96;86.26
55538;BME280;41383;51.418;7.286;2023-04-07T07:27:45;99746.09;;;9.92;86.68
55538;BME280;41383;51.418;7.286;2023-04-07T07:30:11;99754.81;;;9.94;86.62
55538;BME280;41383;51.418;7.286;2023-04-07T07:32:36;99758.88;;;9.91;86.89
55538;BME280;41383;51.418;7.286;2023-04-07T07:35:02;99754.53;;;9.96;86.23
55538;BME280;41383;51.418;7.286;2023-04-07T07:37:27;99759.53;;;9.71;87.78
55538;BME280;41383;51.418;7.286;2023-04-07T07:39:52;99763.75;;;9.89;87.15
55538;BME280;41383;51.418;7.286;2023-04-07T07:42:17;99763.25;;;9.92;86.34
55538;BME280;41383;51.418;7.286;2023-04-07T07:44:43;99776.31;;;9.90;86.94
55538;BME280;41383;51.418;7.286;2023-04-07T07:47:08;99778.03;;;10.02;86.63
55538;BME280;41383;51.418;7.286;2023-04-07T07:49:33;99779.97;;;10.07;85.87
55538;BME280;41383;51.418;7.286;2023-04-07T07:51:59;99780.22;;;10.05;85.93
55538;BME280;41383;51.418;7.286;2023-04-07T07:54:24;99778.03;;;10.07;86.08
55538;BME280;41383;51.418;7.286;2023-04-07T07:56:50;99782.63;;;10.01;86.18
55538;BME280;41383;51.418;7.286;2023-04-07T07:59:16;99789.84;;;9.80;87.17
55538;BME280;41383;51.418;7.286;2023-04-07T08:01:41;99793.25;;;9.98;87.15
55538;BME280;41383;51.418;7.286;2023-04-07T08:04:06;99791.91;;;10.00;86.63
55538;BME280;41383;51.418;7.286;2023-04-07T08:06:32;99792.69;;;9.96;87.31
55538;BME280;41383;51.418;7.286;2023-04-07T08:08:57;99800.38;;;10.04;86.29
55538;BME280;41383;51.418;7.286;2023-04-07T08:11:22;99789.03;;;10.18;86.40
55538;BME280;41383;51.418;7.286;2023-04-07T08:13:48;99801.09;;;10.27;85.81
55538;BME280;41383;51.418;7.286;2023-04-07T08:16:14;99807.41;;;10.33;85.31
55538;BME280;41383;51.418;7.286;2023-04-07T08:18:39;99801.38;;;10.31;86.06
55538;BME280;41383;51.418;7.286;2023-04-07T08:21:05;99808.81;;;10.41;85.64
55538;BME280;41383;51.418;7.286;2023-04-07T08:23:30;99802.91;;;10.49;85.22
55538;BME280;41383;51.418;7.286;2023-04-07T08:25:56;99811.00;;;10.44;85.54
55538;BME280;41383;51.418;7.286;2023-04-07T08:28:23;99807.81;;;10.52;84.90
55538;BME280;41383;51.418;7.286;2023-04-07T08:30:48;99801.31;;;10.58;84.66
55538;BME280;41383;51.418;7.286;2023-04-07T08:33:13;99810.59;;;10.57;84.60
55538;BME280;41383;51.418;7.286;2023-04-07T08:35:38;99814.81;;;10.43;85.49
55538;BME280;41383;51.418;7.286;2023-04-07T08:38:04;99805.94;;;10.58;85.29
55538;BME280;41383;51.418;7.286;2023-04-07T08:40:31;99812.22;;;10.58;85.18
55538;BME280;41383;51.418;7.286;2023-04-07T08:42:59;99810.09;;;10.66;85.20
55538;BME280;41383;51.418;7.286;2023-04-07T08:45:25;99816.13;;;10.78;84.77
55538;BME280;41383;51.418;7.286;2023-04-07T08:47:54;99820.53;;;10.84;84.74
55538;BME280;41383;51.418;7.286;2023-04-07T08:50:21;99819.97;;;10.82;84.55
55538;BME280;41383;51.418;7.286;2023-04-07T08:52:53;99818.94;;;10.94;84.19
55538;BME280;41383;51.418;7.286;2023-04-07T08:55:19;99821.34;;;10.85;84.28
55538;BME280;41383;51.418;7.286;2023-04-07T08:57:45;99826.31;;;10.98;83.93
55538;BME280;41383;51.418;7.286;2023-04-07T09:00:11;99824.69;;;10.97;83.97
55538;BME280;41383;51.418;7.286;2023-04-07T09:02:38;99832.25;;;10.85;84.49
55538;BME280;41383;51.418;7.286;2023-04-07T09:05:08;99831.38;;;10.74;85.08
55538;BME280;41383;51.418;7.286;2023-04-07T09:07:35;99832.59;;;10.94;84.53
55538;BME280;41383;51.418;7.286;2023-04-07T09:10:01;99836.66;;;10.91;84.29
55538;BME280;41383;51.418;7.286;2023-04-07T09:12:27;99838.75;;;10.73;85.14
55538;BME280;41383;51.418;7.286;2023-04-07T09:14:53;99831.91;;;10.71;85.56
55538;BME280;41383;51.418;7.286;2023-04-07T09:17:19;99839.09;;;10.88;85.08
55538;BME280;41383;51.418;7.286;2023-04-07T09:19:44;99839.59;;;10.79;84.62
55538;BME280;41383;51.418;7.286;2023-04-07T09:22:09;99845.00;;;10.74;84.80
55538;BME280;41383;51.418;7.286;2023-04-07T09:24:38;99835.75;;;10.70;85.10
55538;BME280;41383;51.418;7.286;2023-04-07T09:27:10;99842.84;;;10.76;84.98
55538;BME280;41383;51.418;7.286;2023-04-07T09:29:37;99836.81;;;10.74;85.21
55538;BME280;41383;51.418;7.286;2023-04-07T09:32:02;99850.38;;;10.58;85.85
55538;BME280;41383;51.418;7.286;2023-04-07T09:34:30;99841.19;;;10.70;85.82
55538;BME280;41383;51.418;7.286;2023-04-07T09:36:56;99845.06;;;10.84;84.88
55538;BME280;41383;51.418;7.286;2023-04-07T09:39:22;99841.81;;;10.88;84.37
55538;BME280;41383;51.418;7.286;2023-04-07T09:41:47;99840.06;;;10.66;85.58
55538;BME280;41383;51.418;7.286;2023-04-07T09:44:13;99846.09;;;10.73;85.04
55538;BME280;41383;51.418;7.286;2023-04-07T09:46:55;99842.03;;;10.76;84.27
55538;BME280;41383;51.418;7.286;2023-04-07T09:49:21;99846.03;;;10.62;85.06
55538;BME280;41383;51.418;7.286;2023-04-07T09:52:01;99848.75;;;10.57;86.15
55538;BME280;41383;51.418;7.286;2023-04-07T09:54:36;99847.16;;;10.67;85.48
55538;BME280;41383;51.418;7.286;2023-04-07T09:57:03;99858.97;;;10.45;86.52
55538;BME280;41383;51.418;7.286;2023-04-07T09:59:29;99860.16;;;10.54;86.00
55538;BME280;41383;51.418;7.286;2023-04-07T10:01:55;99854.50;;;10.61;85.82
55538;BME280;41383;51.418;7.286;2023-04-07T10:04:21;99865.16;;;10.68;85.55
55538;BME280;41383;51.418;7.286;2023-04-07T10:06:46;99862.94;;;10.65;85.78
55538;BME280;41383;51.418;7.286;2023-04-07T10:09:12;99868.34;;;10.54;86.24
55538;BME280;41383;51.418;7.286;2023-04-07T10:11:39;99861.56;;;10.62;85.92
55538;BME280;41383;51.418;7.286;2023-04-07T10:14:06;99864.94;;;10.42;86.41
55538;BME280;41383;51.418;7.286;2023-04-07T10:16:31;99871.06;;;10.54;86.63
55538;BME280;41383;51.418;7.286;2023-04-07T10:18:57;99867.84;;;10.62;86.04
55538;BME280;41383;51.418;7.286;2023-04-07T10:21:22;99879.03;;;10.61;85.72
55538;BME280;41383;51.418;7.286;2023-04-07T10:26:40;99879.28;;;10.59;86.05
55538;BME280;41383;51.418;7.286;2023-04-07T10:29:09;99871.34;;;10.58;86.31
55538;BME280;41383;51.418;7.286;2023-04-07T10:31:36;99890.75;;;10.61;85.73
55538;BME280;41383;51.418;7.286;2023-04-07T10:34:02;99879.28;;;10.59;85.89
55538;BME280;41383;51.418;7.286;2023-04-07T10:36:28;99878.72;;;10.57;86.30
55538;BME280;41383;51.418;7.286;2023-04-07T10:41:41;99889.03;;;10.50;86.56
55538;BME280;41383;51.418;7.286;2023-04-07T10:44:08;99884.03;;;10.42;87.02
55538;BME280;41383;51.418;7.286;2023-04-07T10:49:10;99890.84;;;10.39;87.14
55538;BME280;41383;51.418;7.286;2023-04-07T10:51:35;99892.66;;;10.33;87.01
55538;BME280;41383;51.418;7.286;2023-04-07T10:54:20;99889.94;;;10.33;87.28
55538;BME280;41383;51.418;7.286;2023-04-07T10:59:30;99907.13;;;10.34;87.39
55538;BME280;41383;51.418;7.286;2023-04-07T11:04:53;99902.31;;;10.41;87.21
55538;BME280;41383;51.418;7.286;2023-04-07T11:07:41;99893.50;;;10.34;86.80
55538;BME280;41383;51.418;7.286;2023-04-07T11:10:11;99900.63;;;10.40;87.41
55538;BME280;41383;51.418;7.286;2023-04-07T11:12:37;99906.00;;;10.57;87.29
55538;BME280;41383;51.418;7.286;2023-04-07T11:15:32;99902.81;;;10.71;86.73
55538;BME280;41383;51.418;7.286;2023-04-07T11:18:17;99899.81;;;10.72;87.13
55538;BME280;41383;51.418;7.286;2023-04-07T11:20:52;99909.66;;;10.79;86.83
55538;BME280;41383;51.418;7.286;2023-04-07T11:23:19;99910.00;;;10.88;86.26
55538;BME280;41383;51.418;7.286;2023-04-07T11:25:49;99914.38;;;10.89;86.38
55538;BME280;41383;51.418;7.286;2023-04-07T11:28:15;99912.75;;;10.93;86.23
55538;BME280;41383;51.418;7.286;2023-04-07T11:30:59;99911.63;;;10.83;86.26
55538;BME280;41383;51.418;7.286;2023-04-07T11:33:26;99923.00;;;10.70;85.87
55538;BME280;41383;51.418;7.286;2023-04-07T11:35:53;99919.66;;;10.62;86.60
55538;BME280;41383;51.418;7.286;2023-04-07T11:38:20;99917.47;;;10.59;86.91
55538;BME280;41383;51.418;7.286;2023-04-07T11:40:46;99920.22;;;10.65;86.94
55538;BME280;41383;51.418;7.286;2023-04-07T11:43:24;99930.22;;;10.54;86.94
55538;BME280;41383;51.418;7.286;2023-04-07T11:48:34;99927.81;;;10.57;86.37
55538;BME280;41383;51.418;7.286;2023-04-07T11:51:00;99929.69;;;10.57;87.26
55538;BME280;41383;51.418;7.286;2023-04-07T11:53:31;99934.75;;;10.76;86.33
55538;BME280;41383;51.418;7.286;2023-04-07T11:56:05;99933.56;;;10.66;86.49
55538;BME280;41383;51.418;7.286;2023-04-07T11:58:31;99934.59;;;10.55;87.18
55538;BME280;41383;51.418;7.286;2023-04-07T12:00:58;99940.41;;;10.64;86.73
55538;BME280;41383;51.418;7.286;2023-04-07T12:03:27;99939.84;;;10.67;86.31
55538;BME280;41383;51.418;7.286;2023-04-07T12:05:53;99939.66;;;10.79;86.15
55538;BME280;41383;51.418;7.286;2023-04-07T12:08:19;99943.81;;;10.86;85.93
55538;BME280;41383;51.418;7.286;2023-04-07T12:10:45;99950.88;;;10.82;85.73
55538;BME280;41383;51.418;7.286;2023-04-07T12:13:12;99955.19;;;10.78;85.57
55538;BME280;41383;51.418;7.286;2023-04-07T12:15:37;99949.16;;;10.71;85.90
55538;BME280;41383;51.418;7.286;2023-04-07T12:18:03;99960.03;;;10.66;85.79
55538;BME280;41383;51.418;7.286;2023-04-07T12:20:28;99965.72;;;10.64;86.19
55538;BME280;41383;51.418;7.286;2023-04-07T12:22:54;99963.84;;;10.65;86.00
55538;BME280;41383;51.418;7.286;2023-04-07T12:25:19;99957.34;;;10.71;85.79
55538;BME280;41383;51.418;7.286;2023-04-07T12:27:44;99964.47;;;10.77;85.42
55538;BME280;41383;51.418;7.286;2023-04-07T12:30:11;99963.38;;;10.78;85.88
55538;BME280;41383;51.418;7.286;2023-04-07T12:32:37;99968.06;;;10.83;85.83
55538;BME280;41383;51.418;7.286;2023-04-07T12:35:03;99962.34;;;10.84;85.86
55538;BME280;41383;51.418;7.286;2023-04-07T12:37:29;99963.94;;;10.80;85.79
55538;BME280;41383;51.418;7.286;2023-04-07T12:39:54;99969.47;;;10.85;85.80
55538;BME280;41383;51.418;7.286;2023-04-07T12:42:19;99968.34;;;10.81;85.90
55538;BME280;41383;51.418;7.286;2023-04-07T12:44:45;99976.47;;;10.76;85.58
55538;BME280;41383;51.418;7.286;2023-04-07T12:47:10;99982.44;;;10.73;85.74
55538;BME280;41383;51.418;7.286;2023-04-07T12:49:36;99980.03;;;10.77;86.13
55538;BME280;41383;51.418;7.286;2023-04-07T12:52:01;99978.16;;;10.82;85.79
55538;BME280;41383;51.418;7.286;2023-04-07T12:54:27;99989.03;;;10.77;86.17
55538;BME280;41383;51.418;7.286;2023-04-07T12:56:53;99991.75;;;10.77;85.88
55538;BME280;41383;51.418;7.286;2023-04-07T12:59:18;99997.72;;;10.74;85.76
55538;BME280;41383;51.418;7.286;2023-04-07T13:01:43;99989.25;;;10.70;85.95
55538;BME280;41383;51.418;7.286;2023-04-07T13:04:09;99985.47;;;10.77;85.81
55538;BME280;41383;51.418;7.286;2023-04-07T13:06:35;99992.88;;;10.81;86.16
55538;BME280;41383;51.418;7.286;2023-04-07T13:09:00;99991.75;;;10.77;86.04
55538;BME280;41383;51.418;7.286;2023-04-07T13:11:25;99990.09;;;10.76;85.55
55538;BME280;41383;51.418;7.286;2023-04-07T13:13:51;99997.97;;;10.72;85.60
55538;BME280;41383;51.418;7.286;2023-04-07T13:16:16;99997.72;;;10.74;86.15
55538;BME280;41383;51.418;7.286;2023-04-07T13:18:41;99995.34;;;10.83;85.70
55538;BME280;41383;51.418;7.286;2023-04-07T13:21:08;99989.63;;;10.84;85.87
55538;BME280;41383;51.418;7.286;2023-04-07T13:23:34;99997.81;;;10.84;86.02